sensor_id;sensor_type;location;lat;lon;timestamp;pressure;altitude;pressure_sealevel;temperature;humidity
53270;BME280;39159;45.634;9.420;2023-11-18T00:00:22;99229.53;;;10.08;42.43
53270;BME280;39159;45.634;9.420;2023-11-18T00:02:48;99219.00;;;10.21;40.31
53270;BME280;39159;45.634;9.420;2023-11-18T00:05:13;99214.00;;;10.42;38.85
53270;BME280;39159;45.634;9.420;2023-11-18T00:07:39;99222.31;;;10.64;38.66
53270;BME280;39159;45.634;9.420;2023-11-18T00:10:05;99197.44;;;10.93;35.82
53270;BME280;39159;45.634;9.420;2023-11-18T00:12:32;99209.28;;;11.03;36.13
53270;BME280;39159;45.634;9.420;2023-11-18T00:15:00;99198.13;;;11.40;33.91
53270;BME280;39159;45.634;9.420;2023-11-18T00:17:28;99179.53;;;11.51;34.27
53270;BME280;39159;45.634;9.420;2023-11-18T00:19:53;99205.34;;;11.59;33.85
53270;BME280;39159;45.634;9.420;2023-11-18T00:22:19;99188.81;;;11.64;33.76
53270;BME280;39159;45.634;9.420;2023-11-18T00:24:44;99184.41;;;11.54;33.96
53270;BME280;39159;45.634;9.420;2023-11-18T00:27:10;99177.22;;;11.45;34.78
53270;BME280;39159;45.634;9.420;2023-11-18T00:29:35;99180.31;;;11.29;35.01
53270;BME280;39159;45.634;9.420;2023-11-18T00:32:03;99180.16;;;11.12;35.75
53270;BME280;39159;45.634;9.420;2023-11-18T00:34:28;99184.69;;;11.03;36.31
53270;BME280;39159;45.634;9.420;2023-11-18T00:36:55;99189.25;;;10.93;36.53
53270;BME280;39159;45.634;9.420;2023-11-18T00:39:22;99195.75;;;10.84;36.54
53270;BME280;39159;45.634;9.420;2023-11-18T00:41:48;99190.97;;;10.75;37.05
53270;BME280;39159;45.634;9.420;2023-11-18T00:44:14;99185.13;;;10.68;37.01
53270;BME280;39159;45.634;9.420;2023-11-18T00:46:39;99194.44;;;10.81;35.71
53270;BME280;39159;45.634;9.420;2023-11-18T00:49:05;99196.84;;;10.83;35.66
53270;BME280;39159;45.634;9.420;2023-11-18T00:51:31;99198.59;;;10.78;36.15
53270;BME280;39159;45.634;9.420;2023-11-18T00:53:57;99196.44;;;10.75;35.21
53270;BME280;39159;45.634;9.420;2023-11-18T00:56:23;99214.25;;;10.73;35.14
53270;BME280;39159;45.634;9.420;2023-11-18T00:58:49;99209.19;;;10.80;34.71
53270;BME280;39159;45.634;9.420;2023-11-18T01:01:14;99203.75;;;10.94;33.23
53270;BME280;39159;45.634;9.420;2023-11-18T01:03:44;99209.50;;;11.06;32.95
53270;BME280;39159;45.634;9.420;2023-11-18T01:06:09;99214.25;;;11.14;33.13
53270;BME280;39159;45.634;9.420;2023-11-18T01:08:35;99214.75;;;11.03;34.19
53270;BME280;39159;45.634;9.420;2023-11-18T01:11:00;99213.31;;;10.91;34.73
53270;BME280;39159;45.634;9.420;2023-11-18T01:13:25;99219.31;;;10.79;35.23
53270;BME280;39159;45.634;9.420;2023-11-18T01:15:51;99218.84;;;10.45;38.45
53270;BME280;39159;45.634;9.420;2023-11-18T01:18:17;99218.63;;;10.08;41.28
53270;BME280;39159;45.634;9.420;2023-11-18T01:20:43;99223.53;;;9.92;41.94
53270;BME280;39159;45.634;9.420;2023-11-18T01:23:08;99215.44;;;9.87;40.68
53270;BME280;39159;45.634;9.420;2023-11-18T01:25:34;99211.69;;;9.83;40.19
53270;BME280;39159;45.634;9.420;2023-11-18T01:28:00;99212.84;;;9.96;38.92
53270;BME280;39159;45.634;9.420;2023-11-18T01:30:25;99210.84;;;10.02;38.46
53270;BME280;39159;45.634;9.420;2023-11-18T01:32:52;99222.78;;;10.06;37.21
53270;BME280;39159;45.634;9.420;2023-11-18T01:35:17;99222.22;;;10.23;35.63
53270;BME280;39159;45.634;9.420;2023-11-18T01:37:43;99230.75;;;10.35;34.90
53270;BME280;39159;45.634;9.420;2023-11-18T01:40:09;99233.91;;;10.42;34.11
53270;BME280;39159;45.634;9.420;2023-11-18T01:42:38;99244.13;;;10.36;34.83
53270;BME280;39159;45.634;9.420;2023-11-18T01:45:04;99245.28;;;10.30;34.80
53270;BME280;39159;45.634;9.420;2023-11-18T01:47:31;99239.31;;;10.28;34.70
53270;BME280;39159;45.634;9.420;2023-11-18T01:49:59;99246.31;;;10.34;34.85
53270;BME280;39159;45.634;9.420;2023-11-18T01:52:27;99237.19;;;10.25;35.79
53270;BME280;39159;45.634;9.420;2023-11-18T01:54:55;99232.25;;;10.27;35.69
53270;BME280;39159;45.634;9.420;2023-11-18T01:57:21;99236.34;;;10.44;34.46
53270;BME280;39159;45.634;9.420;2023-11-18T01:59:47;99232.59;;;10.53;34.07
53270;BME280;39159;45.634;9.420;2023-11-18T02:02:12;99237.91;;;10.64;33.78
53270;BME280;39159;45.634;9.420;2023-11-18T02:04:38;99246.78;;;10.69;34.00
53270;BME280;39159;45.634;9.420;2023-11-18T02:07:04;99249.91;;;10.63;34.11
53270;BME280;39159;45.634;9.420;2023-11-18T02:09:35;99244.53;;;10.57;35.53
53270;BME280;39159;45.634;9.420;2023-11-18T02:14:31;99261.78;;;10.20;38.17
53270;BME280;39159;45.634;9.420;2023-11-18T02:16:59;99260.34;;;10.09;39.04
53270;BME280;39159;45.634;9.420;2023-11-18T02:19:28;99257.94;;;10.07;38.92
53270;BME280;39159;45.634;9.420;2023-11-18T02:21:55;99266.63;;;10.09;38.45
53270;BME280;39159;45.634;9.420;2023-11-18T02:24:29;99261.84;;;10.01;38.99
53270;BME280;39159;45.634;9.420;2023-11-18T02:27:00;99264.34;;;9.98;38.59
53270;BME280;39159;45.634;9.420;2023-11-18T02:29:27;99255.88;;;9.99;37.41
53270;BME280;39159;45.634;9.420;2023-11-18T02:31:59;99266.47;;;10.01;37.86
53270;BME280;39159;45.634;9.420;2023-11-18T02:34:30;99261.56;;;10.03;37.73
53270;BME280;39159;45.634;9.420;2023-11-18T02:36:58;99271.63;;;10.02;38.19
53270;BME280;39159;45.634;9.420;2023-11-18T02:39:34;99278.06;;;9.92;39.38
53270;BME280;39159;45.634;9.420;2023-11-18T02:42:04;99292.84;;;9.86;39.59
53270;BME280;39159;45.634;9.420;2023-11-18T02:44:37;99296.47;;;9.82;39.04
53270;BME280;39159;45.634;9.420;2023-11-18T02:47:03;99313.69;;;9.77;39.52
53270;BME280;39159;45.634;9.420;2023-11-18T02:49:31;99324.16;;;9.70;39.52
53270;BME280;39159;45.634;9.420;2023-11-18T02:51:57;99315.22;;;9.64;39.52
53270;BME280;39159;45.634;9.420;2023-11-18T02:54:23;99332.47;;;9.60;39.93
53270;BME280;39159;45.634;9.420;2023-11-18T02:56:48;99335.53;;;9.53;40.18
53270;BME280;39159;45.634;9.420;2023-11-18T02:59:15;99335.69;;;9.43;40.04
53270;BME280;39159;45.634;9.420;2023-11-18T03:01:41;99331.59;;;9.40;39.43
53270;BME280;39159;45.634;9.420;2023-11-18T03:04:06;99316.53;;;9.48;39.05
53270;BME280;39159;45.634;9.420;2023-11-18T03:06:32;99317.34;;;9.48;38.83
53270;BME280;39159;45.634;9.420;2023-11-18T03:08:58;99326.91;;;9.46;40.23
53270;BME280;39159;45.634;9.420;2023-11-18T03:11:23;99307.69;;;9.37;40.88
53270;BME280;39159;45.634;9.420;2023-11-18T03:13:49;99316.03;;;9.46;38.30
53270;BME280;39159;45.634;9.420;2023-11-18T03:16:14;99311.91;;;9.48;38.59
53270;BME280;39159;45.634;9.420;2023-11-18T03:18:40;99304.84;;;9.47;38.54
53270;BME280;39159;45.634;9.420;2023-11-18T03:21:11;99308.47;;;9.38;39.38
53270;BME280;39159;45.634;9.420;2023-11-18T03:23:38;99295.22;;;9.31;39.90
53270;BME280;39159;45.634;9.420;2023-11-18T03:26:03;99293.38;;;9.26;40.08
53270;BME280;39159;45.634;9.420;2023-11-18T03:28:30;99293.72;;;9.20;39.77
53270;BME280;39159;45.634;9.420;2023-11-18T03:30:56;99290.78;;;9.16;40.04
53270;BME280;39159;45.634;9.420;2023-11-18T03:33:22;99303.09;;;9.08;41.00
53270;BME280;39159;45.634;9.420;2023-11-18T03:35:48;99298.81;;;9.02;40.80
53270;BME280;39159;45.634;9.420;2023-11-18T03:38:13;99299.41;;;8.99;41.20
53270;BME280;39159;45.634;9.420;2023-11-18T03:40:40;99307.38;;;8.90;41.35
53270;BME280;39159;45.634;9.420;2023-11-18T03:43:07;99308.66;;;8.74;41.72
53270;BME280;39159;45.634;9.420;2023-11-18T03:45:32;99309.78;;;8.68;40.24
53270;BME280;39159;45.634;9.420;2023-11-18T03:47:58;99309.50;;;8.69;40.34
53270;BME280;39159;45.634;9.420;2023-11-18T03:50:24;99319.09;;;8.62;41.63
53270;BME280;39159;45.634;9.420;2023-11-18T03:52:50;99331.69;;;8.53;40.92
53270;BME280;39159;45.634;9.420;2023-11-18T03:55:15;99334.41;;;8.53;41.20
53270;BME280;39159;45.634;9.420;2023-11-18T03:57:40;99328.47;;;8.45;42.54
53270;BME280;39159;45.634;9.420;2023-11-18T04:00:06;99336.66;;;8.40;41.80
53270;BME280;39159;45.634;9.420;2023-11-18T04:02:32;99344.03;;;8.35;43.34
53270;BME280;39159;45.634;9.420;2023-11-18T04:05:00;99347.13;;;8.23;45.58
53270;BME280;39159;45.634;9.420;2023-11-18T04:07:26;99351.00;;;8.06;47.22
53270;BME280;39159;45.634;9.420;2023-11-18T04:09:52;99349.53;;;7.80;48.05
53270;BME280;39159;45.634;9.420;2023-11-18T04:12:17;99354.47;;;7.73;48.24
53270;BME280;39159;45.634;9.420;2023-11-18T04:14:42;99346.03;;;7.69;46.96
53270;BME280;39159;45.634;9.420;2023-11-18T04:17:08;99344.69;;;7.72;45.89
53270;BME280;39159;45.634;9.420;2023-11-18T04:19:34;99355.81;;;7.75;43.99
53270;BME280;39159;45.634;9.420;2023-11-18T04:22:00;99365.81;;;7.85;43.25
53270;BME280;39159;45.634;9.420;2023-11-18T04:24:25;99371.75;;;7.92;42.32
53270;BME280;39159;45.634;9.420;2023-11-18T04:26:50;99372.25;;;7.99;42.47
53270;BME280;39159;45.634;9.420;2023-11-18T04:29:16;99379.03;;;8.02;42.95
53270;BME280;39159;45.634;9.420;2023-11-18T04:31:41;99364.91;;;8.00;43.44
53270;BME280;39159;45.634;9.420;2023-11-18T04:34:07;99366.03;;;7.99;42.93
53270;BME280;39159;45.634;9.420;2023-11-18T04:36:33;99364.09;;;7.99;42.83
53270;BME280;39159;45.634;9.420;2023-11-18T04:38:59;99367.09;;;7.98;42.65
53270;BME280;39159;45.634;9.420;2023-11-18T04:41:24;99354.88;;;7.95;42.53
53270;BME280;39159;45.634;9.420;2023-11-18T04:43:49;99353.22;;;7.99;42.49
53270;BME280;39159;45.634;9.420;2023-11-18T04:46:15;99339.06;;;8.02;42.34
53270;BME280;39159;45.634;9.420;2023-11-18T04:48:41;99357.56;;;8.05;42.89
53270;BME280;39159;45.634;9.420;2023-11-18T04:51:06;99357.81;;;8.04;42.44
53270;BME280;39159;45.634;9.420;2023-11-18T04:53:31;99357.56;;;8.05;42.78
53270;BME280;39159;45.634;9.420;2023-11-18T04:55:57;99360.28;;;8.00;42.96
53270;BME280;39159;45.634;9.420;2023-11-18T04:58:23;99359.75;;;8.03;42.12
53270;BME280;39159;45.634;9.420;2023-11-18T05:00:49;99369.75;;;8.08;42.57
53270;BME280;39159;45.634;9.420;2023-11-18T05:03:16;99365.41;;;8.12;42.58
53270;BME280;39159;45.634;9.420;2023-11-18T05:05:42;99367.81;;;8.14;42.56
53270;BME280;39159;45.634;9.420;2023-11-18T05:08:08;99366.69;;;8.20;42.79
53270;BME280;39159;45.634;9.420;2023-11-18T05:10:47;99368.88;;;8.23;43.34
53270;BME280;39159;45.634;9.420;2023-11-18T05:13:12;99366.69;;;8.25;43.54
53270;BME280;39159;45.634;9.420;2023-11-18T05:15:40;99375.66;;;8.25;43.79
53270;BME280;39159;45.634;9.420;2023-11-18T05:18:05;99370.41;;;8.34;43.13
53270;BME280;39159;45.634;9.420;2023-11-18T05:20:36;99364.16;;;8.34;43.04
53270;BME280;39159;45.634;9.420;2023-11-18T05:23:02;99372.03;;;8.35;43.25
53270;BME280;39159;45.634;9.420;2023-11-18T05:25:28;99372.03;;;8.35;43.11
53270;BME280;39159;45.634;9.420;2023-11-18T05:27:54;99370.41;;;8.34;43.13
53270;BME280;39159;45.634;9.420;2023-11-18T05:30:19;99370.09;;;8.46;42.23
53270;BME280;39159;45.634;9.420;2023-11-18T05:32:44;99372.53;;;8.47;41.79
53270;BME280;39159;45.634;9.420;2023-11-18T05:35:10;99374.66;;;8.50;41.74
53270;BME280;39159;45.634;9.420;2023-11-18T05:37:37;99384.47;;;8.52;42.55
53270;BME280;39159;45.634;9.420;2023-11-18T05:40:06;99376.84;;;8.48;41.48
53270;BME280;39159;45.634;9.420;2023-11-18T05:42:36;99384.75;;;8.50;41.32
53270;BME280;39159;45.634;9.420;2023-11-18T05:45:03;99379.03;;;8.52;41.41
53270;BME280;39159;45.634;9.420;2023-11-18T05:47:29;99383.91;;;8.55;41.84
53270;BME280;39159;45.634;9.420;2023-11-18T05:49:55;99372.75;;;8.56;41.85
53270;BME280;39159;45.634;9.420;2023-11-18T05:52:22;99362.72;;;8.52;42.29
53270;BME280;39159;45.634;9.420;2023-11-18T05:54:48;99379.31;;;8.50;41.98
53270;BME280;39159;45.634;9.420;2023-11-18T05:57:15;99393.13;;;8.54;42.17
53270;BME280;39159;45.634;9.420;2023-11-18T05:59:41;99387.16;;;8.57;41.73
53270;BME280;39159;45.634;9.420;2023-11-18T06:02:07;99390.09;;;8.60;41.39
53270;BME280;39159;45.634;9.420;2023-11-18T06:04:33;99402.03;;;8.64;42.57
53270;BME280;39159;45.634;9.420;2023-11-18T06:06:58;99402.22;;;8.39;44.10
53270;BME280;39159;45.634;9.420;2023-11-18T06:09:24;99413.25;;;8.08;44.67
53270;BME280;39159;45.634;9.420;2023-11-18T06:11:54;99409.03;;;7.81;45.76
53270;BME280;39159;45.634;9.420;2023-11-18T06:14:20;99408.53;;;7.69;46.13
53270;BME280;39159;45.634;9.420;2023-11-18T06:16:47;99416.16;;;7.67;46.27
53270;BME280;39159;45.634;9.420;2023-11-18T06:19:13;99412.91;;;7.65;49.94
53270;BME280;39159;45.634;9.420;2023-11-18T06:21:40;99416.16;;;7.67;49.59
53270;BME280;39159;45.634;9.420;2023-11-18T06:24:06;99424.59;;;7.65;48.13
53270;BME280;39159;45.634;9.420;2023-11-18T06:26:32;99413.19;;;7.63;47.35
53270;BME280;39159;45.634;9.420;2023-11-18T06:29:01;99411.03;;;7.55;46.99
53270;BME280;39159;45.634;9.420;2023-11-18T06:31:26;99410.25;;;7.50;46.92
53270;BME280;39159;45.634;9.420;2023-11-18T06:33:54;99422.75;;;7.45;48.13
53270;BME280;39159;45.634;9.420;2023-11-18T06:36:20;99417.03;;;7.42;50.69
53270;BME280;39159;45.634;9.420;2023-11-18T06:38:47;99416.69;;;7.64;54.80
53270;BME280;39159;45.634;9.420;2023-11-18T06:41:19;99410.19;;;7.65;53.58
53270;BME280;39159;45.634;9.420;2023-11-18T06:43:45;99413.22;;;7.58;50.98
53270;BME280;39159;45.634;9.420;2023-11-18T06:46:23;99413.78;;;7.50;50.31
53270;BME280;39159;45.634;9.420;2023-11-18T06:48:53;99415.13;;;7.47;49.85
53270;BME280;39159;45.634;9.420;2023-11-18T06:51:20;99424.66;;;7.45;53.83
53270;BME280;39159;45.634;9.420;2023-11-18T06:53:48;99438.78;;;7.47;51.44
53270;BME280;39159;45.634;9.420;2023-11-18T06:56:14;99445.56;;;7.39;52.23
53270;BME280;39159;45.634;9.420;2023-11-18T06:58:41;99446.94;;;7.26;52.80
53270;BME280;39159;45.634;9.420;2023-11-18T07:01:08;99451.03;;;7.14;52.11
53270;BME280;39159;45.634;9.420;2023-11-18T07:03:35;99460.00;;;6.94;53.12
53270;BME280;39159;45.634;9.420;2023-11-18T07:06:02;99478.16;;;6.93;51.90
53270;BME280;39159;45.634;9.420;2023-11-18T07:08:27;99471.66;;;6.94;52.42
53270;BME280;39159;45.634;9.420;2023-11-18T07:10:52;99474.94;;;6.96;50.54
53270;BME280;39159;45.634;9.420;2023-11-18T07:13:18;99491.75;;;7.03;53.50
53270;BME280;39159;45.634;9.420;2023-11-18T07:15:43;99494.72;;;7.17;54.30
53270;BME280;39159;45.634;9.420;2023-11-18T07:18:09;99494.72;;;7.28;54.46
53270;BME280;39159;45.634;9.420;2023-11-18T07:20:35;99494.16;;;7.36;53.67
53270;BME280;39159;45.634;9.420;2023-11-18T07:23:00;99489.00;;;7.44;53.30
53270;BME280;39159;45.634;9.420;2023-11-18T07:25:25;99495.75;;;7.62;53.01
53270;BME280;39159;45.634;9.420;2023-11-18T07:27:51;99501.63;;;8.00;52.83
53270;BME280;39159;45.634;9.420;2023-11-18T07:30:16;99514.75;;;8.58;54.40
53270;BME280;39159;45.634;9.420;2023-11-18T07:32:43;99510.94;;;8.99;53.79
53270;BME280;39159;45.634;9.420;2023-11-18T07:35:09;99510.91;;;9.33;52.67
53270;BME280;39159;45.634;9.420;2023-11-18T07:37:35;99501.25;;;9.75;50.84
53270;BME280;39159;45.634;9.420;2023-11-18T07:40:03;99503.81;;;10.14;47.85
53270;BME280;39159;45.634;9.420;2023-11-18T07:42:31;99521.31;;;10.56;46.94
53270;BME280;39159;45.634;9.420;2023-11-18T07:45:00;99516.06;;;10.98;47.32
53270;BME280;39159;45.634;9.420;2023-11-18T07:47:28;99518.25;;;11.34;45.86
53270;BME280;39159;45.634;9.420;2023-11-18T07:49:57;99516.50;;;11.71;43.37
53270;BME280;39159;45.634;9.420;2023-11-18T07:52:22;99511.56;;;12.00;43.02
53270;BME280;39159;45.634;9.420;2023-11-18T07:54:47;99512.81;;;12.08;41.07
53270;BME280;39159;45.634;9.420;2023-11-18T07:57:13;99512.63;;;12.18;41.30
53270;BME280;39159;45.634;9.420;2023-11-18T07:59:39;99507.41;;;12.31;40.25
53270;BME280;39159;45.634;9.420;2023-11-18T08:02:04;99503.31;;;12.70;40.41
53270;BME280;39159;45.634;9.420;2023-11-18T08:04:34;99514.03;;;13.02;40.29
53270;BME280;39159;45.634;9.420;2023-11-18T08:07:00;99503.41;;;13.23;40.88
53270;BME280;39159;45.634;9.420;2023-11-18T08:09:26;99503.41;;;13.46;38.63
53270;BME280;39159;45.634;9.420;2023-11-18T08:11:51;99501.75;;;13.67;38.45
53270;BME280;39159;45.634;9.420;2023-11-18T08:14:18;99510.59;;;13.96;38.21
53270;BME280;39159;45.634;9.420;2023-11-18T08:16:43;99501.97;;;14.20;37.58
53270;BME280;39159;45.634;9.420;2023-11-18T08:19:09;99514.47;;;14.43;37.94
53270;BME280;39159;45.634;9.420;2023-11-18T08:21:35;99514.19;;;14.62;37.74
53270;BME280;39159;45.634;9.420;2023-11-18T08:24:04;99510.69;;;14.88;34.67
53270;BME280;39159;45.634;9.420;2023-11-18T08:26:30;99514.22;;;15.15;34.54
53270;BME280;39159;45.634;9.420;2023-11-18T08:28:55;99507.38;;;15.38;33.81
53270;BME280;39159;45.634;9.420;2023-11-18T08:31:21;99511.75;;;15.57;32.39
53270;BME280;39159;45.634;9.420;2023-11-18T08:33:47;99517.28;;;15.04;30.46
53270;BME280;39159;45.634;9.420;2023-11-18T08:36:13;99517.25;;;15.57;31.29
53270;BME280;39159;45.634;9.420;2023-11-18T08:38:38;99514.41;;;15.91;30.99
53270;BME280;39159;45.634;9.420;2023-11-18T08:41:04;99513.75;;;15.94;30.67
53270;BME280;39159;45.634;9.420;2023-11-18T08:43:31;99515.59;;;15.73;30.32
53270;BME280;39159;45.634;9.420;2023-11-18T08:45:56;99522.59;;;15.44;30.68
53270;BME280;39159;45.634;9.420;2023-11-18T08:48:21;99523.28;;;15.24;30.68
53270;BME280;39159;45.634;9.420;2023-11-18T08:50:48;99527.47;;;15.47;31.33
53270;BME280;39159;45.634;9.420;2023-11-18T08:53:13;99528.72;;;15.67;32.25
53270;BME280;39159;45.634;9.420;2023-11-18T08:55:44;99516.56;;;15.60;30.27
53270;BME280;39159;45.634;9.420;2023-11-18T08:58:22;99524.34;;;16.13;30.63
53270;BME280;39159;45.634;9.420;2023-11-18T09:00:49;99521.66;;;16.34;30.31
53270;BME280;39159;45.634;9.420;2023-11-18T09:03:23;99531.81;;;16.72;31.27
53270;BME280;39159;45.634;9.420;2023-11-18T09:06:15;99527.19;;;17.06;30.09
53270;BME280;39159;45.634;9.420;2023-11-18T09:08:45;99529.59;;;17.29;29.06
53270;BME280;39159;45.634;9.420;2023-11-18T09:11:12;99521.78;;;17.31;27.61
53270;BME280;39159;45.634;9.420;2023-11-18T09:13:47;99523.19;;;17.37;29.05
53270;BME280;39159;45.634;9.420;2023-11-18T09:16:19;99529.25;;;17.64;28.98
53270;BME280;39159;45.634;9.420;2023-11-18T09:18:47;99535.84;;;17.38;26.74
53270;BME280;39159;45.634;9.420;2023-11-18T09:21:13;99536.28;;;17.73;27.59
53270;BME280;39159;45.634;9.420;2023-11-18T09:23:45;99533.50;;;17.94;26.33
53270;BME280;39159;45.634;9.420;2023-11-18T09:26:13;99529.00;;;18.02;26.42
53270;BME280;39159;45.634;9.420;2023-11-18T09:28:40;99532.69;;;17.60;27.55
53270;BME280;39159;45.634;9.420;2023-11-18T09:31:06;99541.53;;;17.87;27.07
53270;BME280;39159;45.634;9.420;2023-11-18T09:33:33;99540.41;;;18.13;27.32
53270;BME280;39159;45.634;9.420;2023-11-18T09:36:06;99543.66;;;18.15;26.31
53270;BME280;39159;45.634;9.420;2023-11-18T09:38:40;99550.78;;;17.70;25.73
53270;BME280;39159;45.634;9.420;2023-11-18T09:41:08;99550.50;;;17.51;25.67
53270;BME280;39159;45.634;9.420;2023-11-18T09:43:40;99560.66;;;17.92;26.81
53270;BME280;39159;45.634;9.420;2023-11-18T09:46:14;99552.84;;;18.31;26.59
53270;BME280;39159;45.634;9.420;2023-11-18T09:48:48;99551.69;;;18.08;25.17
53270;BME280;39159;45.634;9.420;2023-11-18T09:51:26;99542.97;;;18.30;25.38
53270;BME280;39159;45.634;9.420;2023-11-18T09:53:59;99538.47;;;18.50;24.86
53270;BME280;39159;45.634;9.420;2023-11-18T10:00:04;99531.44;;;18.77;25.20
53270;BME280;39159;45.634;9.420;2023-11-18T10:02:56;99528.75;;;18.93;24.69
53270;BME280;39159;45.634;9.420;2023-11-18T10:05:22;99527.44;;;19.03;24.62
53270;BME280;39159;45.634;9.420;2023-11-18T10:07:51;99526.25;;;18.63;24.68
53270;BME280;39159;45.634;9.420;2023-11-18T10:10:17;99527.97;;;18.68;23.92
53270;BME280;39159;45.634;9.420;2023-11-18T10:12:46;99527.03;;;18.64;24.69
53270;BME280;39159;45.634;9.420;2023-11-18T10:15:18;99516.38;;;19.03;24.73
53270;BME280;39159;45.634;9.420;2023-11-18T10:17:45;99518.50;;;19.22;22.50
53270;BME280;39159;45.634;9.420;2023-11-18T10:20:47;99516.88;;;19.49;22.09
53270;BME280;39159;45.634;9.420;2023-11-18T10:23:13;99513.00;;;19.66;22.71
53270;BME280;39159;45.634;9.420;2023-11-18T10:25:52;99518.13;;;19.52;22.44
53270;BME280;39159;45.634;9.420;2023-11-18T10:28:42;99513.97;;;19.30;22.93
53270;BME280;39159;45.634;9.420;2023-11-18T10:31:07;99503.50;;;19.67;23.21
53270;BME280;39159;45.634;9.420;2023-11-18T10:33:36;99513.59;;;19.59;23.28
53270;BME280;39159;45.634;9.420;2023-11-18T10:36:03;99498.84;;;19.55;23.87
53270;BME280;39159;45.634;9.420;2023-11-18T10:38:38;99495.44;;;19.90;23.76
53270;BME280;39159;45.634;9.420;2023-11-18T10:41:09;99499.97;;;19.98;24.15
53270;BME280;39159;45.634;9.420;2023-11-18T10:43:35;99508.28;;;19.98;23.70
53270;BME280;39159;45.634;9.420;2023-11-18T10:48:30;99509.97;;;19.71;24.14
53270;BME280;39159;45.634;9.420;2023-11-18T10:50:56;99517.63;;;19.62;22.78
53270;BME280;39159;45.634;9.420;2023-11-18T10:53:24;99515.81;;;19.82;22.97
53270;BME280;39159;45.634;9.420;2023-11-18T10:55:51;99518.56;;;19.82;23.21
53270;BME280;39159;45.634;9.420;2023-11-18T10:58:17;99518.22;;;20.15;23.58
53270;BME280;39159;45.634;9.420;2023-11-18T11:00:50;99517.16;;;20.20;23.55
53270;BME280;39159;45.634;9.420;2023-11-18T11:03:18;99524.53;;;20.47;22.49
53270;BME280;39159;45.634;9.420;2023-11-18T11:05:44;99519.69;;;20.60;22.91
53270;BME280;39159;45.634;9.420;2023-11-18T11:08:14;99520.25;;;20.66;22.99
53270;BME280;39159;45.634;9.420;2023-11-18T11:10:41;99518.34;;;20.70;22.23
53270;BME280;39159;45.634;9.420;2023-11-18T11:13:09;99503.63;;;20.50;21.16
53270;BME280;39159;45.634;9.420;2023-11-18T11:15:42;99499.34;;;20.21;22.10
53270;BME280;39159;45.634;9.420;2023-11-18T11:18:20;99499.44;;;20.24;23.51
53270;BME280;39159;45.634;9.420;2023-11-18T11:20:58;99505.34;;;19.91;22.77
53270;BME280;39159;45.634;9.420;2023-11-18T11:26:50;99493.53;;;20.26;22.99
53270;BME280;39159;45.634;9.420;2023-11-18T11:29:57;99490.66;;;20.38;22.88
53270;BME280;39159;45.634;9.420;2023-11-18T11:32:39;99497.47;;;20.57;22.33
53270;BME280;39159;45.634;9.420;2023-11-18T11:35:12;99482.88;;;20.79;22.51
53270;BME280;39159;45.634;9.420;2023-11-18T11:37:44;99475.16;;;20.88;22.60
53270;BME280;39159;45.634;9.420;2023-11-18T11:40:11;99475.38;;;20.80;22.75
53270;BME280;39159;45.634;9.420;2023-11-18T11:42:39;99465.41;;;20.59;22.96
53270;BME280;39159;45.634;9.420;2023-11-18T11:45:06;99475.06;;;20.49;22.98
53270;BME280;39159;45.634;9.420;2023-11-18T11:47:46;99470.69;;;20.48;23.13
53270;BME280;39159;45.634;9.420;2023-11-18T11:50:20;99461.56;;;20.64;23.20
53270;BME280;39159;45.634;9.420;2023-11-18T11:53:03;99458.63;;;20.57;22.46
53270;BME280;39159;45.634;9.420;2023-11-18T11:55:44;99463.72;;;20.03;21.32
53270;BME280;39159;45.634;9.420;2023-11-18T11:58:29;99460.19;;;20.22;22.28
53270;BME280;39159;45.634;9.420;2023-11-18T12:01:01;99464.00;;;20.34;21.65
53270;BME280;39159;45.634;9.420;2023-11-18T12:03:33;99442.31;;;20.20;21.10
53270;BME280;39159;45.634;9.420;2023-11-18T12:06:01;99454.19;;;20.20;21.49
53270;BME280;39159;45.634;9.420;2023-11-18T12:08:35;99447.75;;;20.32;21.79
53270;BME280;39159;45.634;9.420;2023-11-18T12:11:02;99439.75;;;20.11;20.64
53270;BME280;39159;45.634;9.420;2023-11-18T12:13:27;99444.75;;;20.21;21.03
53270;BME280;39159;45.634;9.420;2023-11-18T12:15:55;99445.91;;;20.04;21.53
53270;BME280;39159;45.634;9.420;2023-11-18T12:18:29;99447.03;;;20.35;21.31
53270;BME280;39159;45.634;9.420;2023-11-18T12:20:57;99437.22;;;20.22;21.04
53270;BME280;39159;45.634;9.420;2023-11-18T12:23:27;99429.16;;;19.81;21.64
53270;BME280;39159;45.634;9.420;2023-11-18T12:25:53;99420.22;;;19.72;21.22
53270;BME280;39159;45.634;9.420;2023-11-18T12:28:39;99424.09;;;19.55;20.64
53270;BME280;39159;45.634;9.420;2023-11-18T12:31:11;99421.91;;;19.77;21.25
53270;BME280;39159;45.634;9.420;2023-11-18T12:42:01;99432.59;;;19.94;20.54
53270;BME280;39159;45.634;9.420;2023-11-18T12:44:38;99439.97;;;19.71;20.74
53270;BME280;39159;45.634;9.420;2023-11-18T12:47:07;99429.94;;;19.82;20.82
53270;BME280;39159;45.634;9.420;2023-11-18T12:49:47;99434.22;;;19.95;20.89
53270;BME280;39159;45.634;9.420;2023-11-18T12:52:20;99422.41;;;19.98;20.67
53270;BME280;39159;45.634;9.420;2023-11-18T12:54:47;99426.44;;;19.85;28.52
53270;BME280;39159;45.634;9.420;2023-11-18T12:57:16;99428.88;;;18.82;32.24
53270;BME280;39159;45.634;9.420;2023-11-18T12:59:43;99422.91;;;18.68;33.35
53270;BME280;39159;45.634;9.420;2023-11-18T13:02:09;99419.97;;;18.49;34.43
53270;BME280;39159;45.634;9.420;2023-11-18T13:04:41;99411.28;;;18.22;35.24
53270;BME280;39159;45.634;9.420;2023-11-18T13:07:07;99415.78;;;18.14;35.56
53270;BME280;39159;45.634;9.420;2023-11-18T13:09:37;99418.63;;;18.30;35.06
53270;BME280;39159;45.634;9.420;2023-11-18T13:12:03;99413.63;;;17.83;36.65
53270;BME280;39159;45.634;9.420;2023-11-18T13:14:32;99406.69;;;18.01;35.40
53270;BME280;39159;45.634;9.420;2023-11-18T13:17:09;99408.38;;;17.69;35.91
53270;BME280;39159;45.634;9.420;2023-11-18T13:19:36;99415.88;;;17.81;36.56
53270;BME280;39159;45.634;9.420;2023-11-18T13:22:06;99418.44;;;17.86;36.69
53270;BME280;39159;45.634;9.420;2023-11-18T13:24:36;99406.69;;;18.01;36.36
53270;BME280;39159;45.634;9.420;2023-11-18T13:27:05;99402.31;;;18.13;36.67
53270;BME280;39159;45.634;9.420;2023-11-18T13:29:32;99409.09;;;18.15;36.74